createdAt,value
2018-04-13T00:00:07.759Z,15.79
2018-04-13T00:01:45.196Z,15.58
2018-04-13T00:03:22.461Z,15.67
2018-04-13T00:04:58.969Z,16.05
2018-04-13T00:06:36.314Z,16.35
2018-04-13T00:08:13.935Z,16.61
2018-04-13T00:09:52.465Z,16.62
2018-04-13T00:11:29.980Z,16.66
2018-04-13T00:13:07.455Z,16.76
2018-04-13T00:14:49.852Z,16.75
2018-04-13T00:16:26.382Z,16.64
2018-04-13T00:18:02.839Z,16.47
2018-04-13T00:19:40.671Z,16.26
2018-04-13T00:21:17.692Z,16.09
2018-04-13T00:22:55.332Z,15.82
2018-04-13T00:24:31.931Z,15.71
2018-04-13T00:26:08.995Z,15.88
2018-04-13T00:27:46.888Z,15.96
2018-04-13T00:29:23.486Z,16.04
2018-04-13T00:31:00.034Z,16.21
2018-04-13T00:32:36.545Z,16.28
2018-04-13T00:35:46.068Z,16.44
2018-04-13T00:37:22.427Z,16.47
2018-04-13T00:38:59.145Z,16.45
2018-04-13T00:40:35.707Z,16.33
2018-04-13T00:42:12.040Z,16.27
2018-04-13T00:43:48.419Z,16.31
2018-04-13T00:45:26.700Z,16.36
2018-04-13T00:47:03.048Z,16.46
2018-04-13T00:48:39.598Z,16.64
2018-04-13T00:50:15.941Z,16.79
2018-04-13T00:51:53.570Z,17.02
2018-04-13T00:53:32.946Z,16.94
2018-04-13T00:55:10.107Z,16.79
2018-04-13T00:56:46.354Z,16.73
2018-04-13T00:58:23.167Z,16.67
2018-04-13T01:00:00.499Z,16.58
2018-04-13T01:01:38.745Z,16.43
2018-04-13T01:03:16.610Z,16.21
2018-04-13T01:04:54.379Z,15.88
2018-04-13T01:06:30.770Z,15.58
2018-04-13T01:08:07.627Z,15.10
2018-04-13T01:09:44.239Z,14.90
2018-04-13T01:11:21.029Z,14.67
2018-04-13T01:12:57.485Z,14.70
2018-04-13T01:14:34.762Z,14.89
2018-04-13T01:16:11.117Z,15.20
2018-04-13T01:17:48.707Z,15.41
2018-04-13T01:19:25.871Z,15.35
2018-04-13T01:21:02.263Z,15.29
2018-04-13T01:22:38.646Z,15.31
2018-04-13T01:24:16.198Z,15.47
2018-04-13T01:25:53.250Z,15.30
2018-04-13T01:27:30.377Z,15.15
2018-04-13T01:29:07.322Z,15.17
2018-04-13T01:30:44.411Z,15.10
2018-04-13T01:32:21.641Z,15.41
2018-04-13T01:33:58.779Z,15.76
2018-04-13T01:35:35.182Z,15.94
2018-04-13T01:37:12.005Z,15.96
2018-04-13T01:38:48.637Z,16.00
2018-04-13T01:40:25.195Z,16.04
2018-04-13T01:42:01.727Z,16.11
2018-04-13T01:43:39.353Z,16.08
2018-04-13T01:45:17.661Z,16.07
2018-04-13T01:46:54.224Z,16.13
2018-04-13T01:48:30.542Z,16.08
2018-04-13T01:50:07.129Z,16.00
2018-04-13T01:51:44.194Z,15.86
2018-04-13T01:53:20.606Z,15.82
2018-04-13T01:54:56.985Z,15.77
2018-04-13T01:56:33.518Z,15.75
2018-04-13T01:58:11.993Z,15.65
2018-04-13T01:59:49.865Z,15.45
2018-04-13T02:01:29.492Z,15.36
2018-04-13T02:03:06.110Z,15.29
2018-04-13T02:04:42.584Z,15.24
2018-04-13T02:06:20.118Z,15.28
2018-04-13T02:07:58.741Z,15.18
2018-04-13T02:09:35.222Z,15.23
2018-04-13T02:11:11.813Z,15.17
2018-04-13T02:12:48.719Z,15.09
2018-04-13T02:14:25.513Z,15.03
2018-04-13T02:16:03.318Z,14.98
2018-04-13T02:17:39.947Z,14.82
2018-04-13T02:19:16.405Z,14.53
2018-04-13T02:20:53.228Z,14.13
2018-04-13T02:22:29.598Z,13.92
2018-04-13T02:24:06.203Z,13.73
2018-04-13T02:25:42.538Z,13.61
2018-04-13T02:27:20.008Z,13.50
2018-04-13T02:28:57.238Z,13.31
2018-04-13T02:30:33.790Z,13.07
2018-04-13T02:32:10.782Z,12.81
2018-04-13T02:33:47.747Z,12.67
2018-04-13T02:35:24.322Z,12.58
2018-04-13T02:37:00.720Z,12.56
2018-04-13T02:38:37.233Z,12.49
2018-04-13T02:40:14.263Z,12.47
2018-04-13T02:41:50.795Z,12.42
2018-04-13T02:43:27.437Z,12.39
2018-04-13T02:45:05.025Z,12.56
2018-04-13T02:46:41.642Z,12.79
2018-04-13T02:48:19.656Z,13.10
2018-04-13T02:49:56.353Z,13.39
2018-04-13T02:51:32.809Z,13.70
2018-04-13T02:53:10.543Z,13.89
2018-04-13T02:54:47.040Z,14.05
2018-04-13T02:56:23.613Z,14.11
2018-04-13T02:57:59.934Z,14.30
2018-04-13T02:59:37.277Z,14.47
2018-04-13T03:01:13.641Z,14.63
2018-04-13T03:02:50.450Z,14.64
2018-04-13T03:04:26.701Z,14.62
2018-04-13T03:06:04.160Z,14.54
2018-04-13T03:07:40.698Z,14.42
2018-04-13T03:09:19.277Z,14.23
2018-04-13T03:10:56.369Z,13.99
2018-04-13T03:12:33.931Z,14.02
2018-04-13T03:14:10.359Z,14.14
2018-04-13T03:15:46.703Z,14.40
2018-04-13T03:17:22.992Z,14.71
2018-04-13T03:18:59.755Z,14.89
2018-04-13T03:20:36.860Z,15.01
2018-04-13T03:22:13.275Z,15.02
2018-04-13T03:23:51.371Z,15.02
2018-04-13T03:25:28.198Z,15.00
2018-04-13T03:27:04.601Z,14.91
2018-04-13T03:28:41.367Z,14.95
2018-04-13T03:30:19.929Z,14.88
2018-04-13T03:31:56.733Z,14.72
2018-04-13T03:33:32.994Z,14.44
2018-04-13T03:35:09.231Z,14.23
2018-04-13T03:36:45.542Z,14.07
2018-04-13T03:38:23.512Z,13.84
2018-04-13T03:39:59.871Z,13.78
2018-04-13T03:41:36.541Z,13.85
2018-04-13T03:43:12.887Z,13.99
2018-04-13T03:44:50.076Z,14.05
2018-04-13T03:46:26.470Z,14.06
2018-04-13T03:48:03.709Z,14.26
2018-04-13T03:49:40.193Z,14.34
2018-04-13T03:51:17.277Z,14.26
2018-04-13T03:52:53.571Z,14.09
2018-04-13T03:54:29.903Z,14.00
2018-04-13T03:56:06.329Z,13.98
2018-04-13T03:57:43.082Z,13.89
2018-04-13T03:59:19.430Z,13.80
2018-04-13T04:00:56.024Z,13.89
2018-04-13T04:02:32.270Z,14.03
2018-04-13T04:04:08.876Z,14.14
2018-04-13T04:05:45.200Z,13.86
2018-04-13T04:07:21.454Z,13.79
2018-04-13T04:08:58.745Z,13.69
2018-04-13T04:10:36.176Z,13.35
2018-04-13T04:12:12.517Z,13.15
2018-04-13T04:13:48.886Z,13.11
2018-04-13T04:15:26.913Z,12.93
2018-04-13T04:17:04.470Z,12.94
2018-04-13T04:18:41.049Z,12.87
2018-04-13T04:20:33.574Z,12.67
2018-04-13T04:24:28.380Z,12.72
2018-04-13T04:27:07.455Z,12.67
2018-04-13T04:28:44.162Z,12.57
2018-04-13T04:30:21.511Z,12.56
2018-04-13T04:31:59.350Z,12.37
2018-04-13T04:33:36.496Z,12.17
2018-04-13T04:35:13.215Z,12.17
2018-04-13T04:36:49.599Z,11.98
2018-04-13T04:38:26.014Z,12.03
2018-04-13T04:40:03.160Z,12.17
2018-04-13T04:41:39.415Z,12.11
2018-04-13T04:43:15.845Z,11.93
2018-04-13T04:44:52.109Z,11.86
2018-04-13T04:46:28.434Z,11.67
2018-04-13T04:48:06.059Z,11.58
2018-04-13T04:49:42.352Z,11.49
2018-04-13T04:51:18.704Z,11.57
2018-04-13T04:52:56.108Z,11.82
2018-04-13T04:54:32.695Z,12.04
2018-04-13T04:56:09.331Z,12.15
2018-04-13T04:57:45.754Z,12.24
2018-04-13T04:59:21.984Z,12.32
2018-04-13T05:00:58.975Z,12.50
2018-04-13T05:02:35.365Z,12.61
2018-04-13T05:04:11.692Z,12.80
2018-04-13T05:05:49.058Z,12.94
2018-04-13T05:07:26.771Z,13.11
2018-04-13T05:09:03.970Z,13.24
2018-04-13T05:10:41.119Z,13.09
2018-04-13T05:12:18.256Z,12.97
2018-04-13T05:13:55.001Z,13.07
2018-04-13T05:15:31.428Z,13.07
2018-04-13T05:17:08.470Z,13.11
2018-04-13T05:18:44.874Z,13.06
2018-04-13T05:20:22.462Z,12.83
2018-04-13T05:21:58.730Z,12.52
2018-04-13T05:23:35.130Z,12.31
2018-04-13T05:25:11.337Z,12.19
2018-04-13T05:26:48.469Z,12.28
2018-04-13T05:28:24.826Z,12.16
2018-04-13T05:30:01.107Z,12.12
2018-04-13T05:31:38.478Z,12.03
2018-04-13T05:33:15.109Z,11.88
2018-04-13T05:34:51.553Z,11.74
2018-04-13T05:36:28.689Z,11.64
2018-04-13T05:38:05.710Z,11.62
2018-04-13T05:39:42.516Z,11.61
2018-04-13T05:41:19.449Z,11.64
2018-04-13T05:42:56.609Z,11.70
2018-04-13T05:44:32.957Z,11.77
2018-04-13T05:46:09.675Z,11.77
2018-04-13T05:47:45.967Z,11.71
2018-04-13T05:49:22.527Z,11.63
2018-04-13T05:52:39.894Z,11.56
2018-04-13T05:54:16.284Z,11.54
2018-04-13T05:55:53.339Z,11.45
2018-04-13T05:57:29.806Z,11.34
2018-04-13T05:59:06.795Z,11.31
2018-04-13T06:00:43.134Z,11.26
2018-04-13T06:02:20.136Z,11.25
2018-04-13T06:03:57.298Z,11.34
2018-04-13T06:05:35.069Z,11.46
2018-04-13T06:07:11.355Z,11.71
2018-04-13T06:08:47.670Z,12.03
2018-04-13T06:10:24.829Z,12.23
2018-04-13T06:12:02.161Z,12.22
2018-04-13T06:13:38.679Z,12.28
2018-04-13T06:15:16.669Z,12.36
2018-04-13T06:16:53.062Z,12.41
2018-04-13T06:18:29.701Z,12.42
2018-04-13T06:20:06.246Z,12.43
2018-04-13T06:21:42.475Z,12.63
2018-04-13T06:23:18.781Z,12.82
2018-04-13T06:24:55.501Z,13.01
2018-04-13T06:26:32.557Z,13.20
2018-04-13T06:28:08.886Z,13.06
2018-04-13T06:29:45.183Z,13.20
2018-04-13T06:31:21.925Z,13.45
2018-04-13T06:32:58.940Z,13.57
2018-04-13T06:34:35.260Z,13.76
2018-04-13T06:36:11.830Z,13.67
2018-04-13T06:37:51.562Z,13.76
2018-04-13T06:39:28.708Z,13.57
2018-04-13T06:41:05.053Z,13.38
2018-04-13T06:42:41.359Z,13.18
2018-04-13T06:44:17.917Z,13.19
2018-04-13T06:45:54.390Z,13.27
2018-04-13T06:47:31.459Z,13.41
2018-04-13T06:49:07.762Z,13.46
2018-04-13T06:50:44.791Z,13.62
2018-04-13T06:52:21.141Z,13.58
2018-04-13T06:53:57.452Z,13.52
2018-04-13T06:55:34.607Z,13.56
2018-04-13T06:57:10.905Z,13.69
2018-04-13T06:58:47.320Z,13.78
2018-04-13T07:00:26.033Z,13.92
2018-04-13T07:02:04.033Z,14.19
2018-04-13T07:03:40.761Z,14.53
2018-04-13T07:05:16.959Z,14.95
2018-04-13T07:06:53.679Z,15.06
2018-04-13T07:08:30.896Z,14.95
2018-04-13T07:10:07.844Z,14.70
2018-04-13T07:11:44.347Z,14.49
2018-04-13T07:13:20.735Z,14.75
2018-04-13T07:14:57.351Z,14.86
2018-04-13T07:16:34.321Z,15.01
2018-04-13T07:18:10.685Z,14.93
2018-04-13T07:19:47.029Z,15.08
2018-04-13T07:21:23.479Z,15.17
2018-04-13T07:23:00.455Z,15.22
2018-04-13T07:24:36.909Z,15.54
2018-04-13T07:26:13.487Z,15.84
2018-04-13T07:27:49.932Z,16.04
2018-04-13T07:29:26.604Z,15.54
2018-04-13T07:31:03.034Z,15.26
2018-04-13T07:32:39.427Z,15.14
2018-04-13T07:34:15.783Z,14.95
2018-04-13T07:35:53.307Z,14.99
2018-04-13T07:37:29.646Z,14.94
2018-04-13T07:39:07.843Z,14.76
2018-04-13T07:40:44.188Z,14.74
2018-04-13T07:42:20.632Z,14.63
2018-04-13T07:43:57.094Z,14.50
2018-04-13T07:45:33.395Z,14.61
2018-04-13T07:47:09.783Z,15.02
2018-04-13T07:48:46.411Z,15.30
2018-04-13T07:50:22.672Z,15.29
2018-04-13T07:52:00.056Z,15.15
2018-04-13T07:53:36.078Z,15.19
2018-04-13T07:55:14.476Z,15.30
2018-04-13T07:56:50.762Z,15.29
2018-04-13T07:58:28.059Z,15.22
2018-04-13T08:00:05.377Z,15.27
2018-04-13T08:01:42.765Z,14.96
2018-04-13T08:03:19.220Z,14.86
2018-04-13T08:04:55.506Z,14.78
2018-04-13T08:06:32.786Z,14.81
2018-04-13T08:08:09.752Z,14.83
2018-04-13T08:09:46.099Z,14.89
2018-04-13T08:11:22.379Z,15.16
2018-04-13T08:12:58.737Z,15.33
2018-04-13T08:14:35.545Z,15.54
2018-04-13T08:16:13.425Z,15.76
2018-04-13T08:17:49.831Z,16.20
2018-04-13T08:19:26.226Z,16.53
2018-04-13T08:21:02.961Z,16.83
2018-04-13T08:22:39.274Z,17.15
2018-04-13T08:24:16.039Z,17.49
2018-04-13T08:25:52.398Z,17.47
2018-04-13T08:27:28.946Z,17.21
2018-04-13T08:29:06.942Z,17.12
2018-04-13T08:30:43.565Z,17.11
2018-04-13T08:32:20.091Z,16.91
2018-04-13T08:33:56.934Z,16.87
2018-04-13T08:35:35.330Z,16.79
2018-04-13T08:37:11.569Z,16.81
2018-04-13T08:38:48.046Z,16.97
2018-04-13T08:40:24.841Z,17.25
2018-04-13T08:42:01.966Z,17.37
2018-04-13T08:43:38.341Z,17.30
2018-04-13T08:45:16.620Z,17.44
2018-04-13T08:46:53.534Z,17.70
2018-04-13T08:48:30.586Z,17.82
2018-04-13T08:50:07.058Z,17.80
2018-04-13T08:51:44.325Z,17.80
2018-04-13T08:53:21.069Z,17.53
2018-04-13T08:54:58.249Z,17.13
2018-04-13T08:56:35.348Z,17.42
2018-04-13T08:58:11.594Z,17.69
2018-04-13T08:59:48.293Z,17.50
2018-04-13T09:01:24.657Z,17.38
2018-04-13T09:03:00.933Z,17.78
2018-04-13T09:04:37.293Z,17.94
2018-04-13T09:07:42.697Z,17.86
2018-04-13T09:09:19.148Z,17.95
2018-04-13T09:10:56.359Z,18.15
2018-04-13T09:12:33.267Z,18.57
2018-04-13T09:14:10.446Z,18.76
2018-04-13T09:15:46.840Z,18.87
2018-04-13T09:17:23.315Z,18.80
2018-04-13T09:19:00.144Z,18.63
2018-04-13T09:20:36.552Z,18.47
2018-04-13T09:22:13.757Z,18.27
2018-04-13T09:23:50.176Z,18.09
2018-04-13T09:25:26.974Z,17.89
2018-04-13T09:27:04.266Z,17.85
2018-04-13T09:28:41.408Z,17.90
2018-04-13T09:30:18.745Z,18.05
2018-04-13T09:31:55.837Z,18.25
2018-04-13T09:33:32.437Z,18.34
2018-04-13T09:35:09.022Z,18.30
2018-04-13T09:36:46.341Z,18.04
2018-04-13T09:38:23.095Z,17.95
2018-04-13T09:39:59.561Z,18.02
2018-04-13T09:41:36.047Z,18.12
2018-04-13T09:43:12.451Z,18.31
2018-04-13T09:44:50.157Z,18.42
2018-04-13T09:46:26.791Z,18.36
2018-04-13T09:48:04.178Z,18.33
2018-04-13T09:49:40.845Z,18.32
2018-04-13T09:51:17.751Z,18.22
2018-04-13T09:52:54.145Z,18.23
2018-04-13T09:54:31.016Z,18.22
2018-04-13T09:56:07.681Z,18.18
2018-04-13T09:57:45.537Z,18.12
2018-04-13T09:59:21.957Z,18.06
2018-04-13T10:01:01.075Z,18.07
2018-04-13T10:02:38.607Z,18.09
2018-04-13T10:04:15.681Z,18.24
2018-04-13T10:05:53.138Z,18.20
2018-04-13T10:07:29.750Z,18.05
2018-04-13T10:09:07.419Z,17.89
2018-04-13T10:10:45.860Z,17.89
2018-04-13T10:12:23.160Z,17.72
2018-04-13T10:13:59.638Z,17.42
2018-04-13T10:15:36.978Z,17.13
2018-04-13T10:17:13.491Z,17.22
2018-04-13T10:18:49.905Z,17.31
2018-04-13T10:20:29.323Z,17.43
2018-04-13T10:22:05.829Z,17.49
2018-04-13T10:23:43.060Z,17.50
2018-04-13T10:25:20.307Z,17.45
2018-04-13T10:26:57.536Z,17.40
2018-04-13T10:28:35.579Z,17.24
2018-04-13T10:30:13.461Z,17.23
2018-04-13T10:31:50.221Z,17.18
2018-04-13T10:33:27.198Z,17.16
2018-04-13T10:35:04.855Z,17.20
2018-04-13T10:36:41.291Z,17.33
2018-04-13T10:38:17.854Z,17.54
2018-04-13T10:39:54.148Z,17.70
2018-04-13T10:41:31.194Z,17.77
2018-04-13T10:43:07.675Z,17.85
2018-04-13T10:44:43.980Z,17.79
2018-04-13T10:46:20.406Z,17.74
2018-04-13T10:47:58.600Z,17.64
2018-04-13T10:49:35.075Z,17.71
2018-04-13T10:51:11.489Z,17.85
2018-04-13T10:52:49.144Z,17.93
2018-04-13T10:54:26.165Z,17.74
2018-04-13T10:56:04.380Z,17.74
2018-04-13T10:57:41.575Z,17.91
2018-04-13T10:59:18.081Z,18.11
2018-04-13T11:00:55.534Z,18.30
2018-04-13T11:02:32.005Z,18.40
2018-04-13T11:04:09.043Z,18.51
2018-04-13T11:05:46.925Z,18.63
2018-04-13T11:07:25.626Z,18.65
2018-04-13T11:09:02.939Z,18.70
2018-04-13T11:10:39.583Z,18.41
2018-04-13T11:12:16.263Z,18.38
2018-04-13T11:13:53.186Z,18.47
2018-04-13T11:15:29.644Z,18.35
2018-04-13T11:17:06.830Z,18.15
2018-04-13T11:18:44.122Z,18.02
2018-04-13T11:20:20.858Z,17.84
2018-04-13T11:21:58.002Z,17.79
2018-04-13T11:23:34.418Z,17.86
2018-04-13T11:25:11.616Z,18.00
2018-04-13T11:26:48.385Z,18.13
2018-04-13T11:28:26.625Z,18.30
2018-04-13T11:30:05.868Z,18.42
2018-04-13T11:31:42.406Z,18.40
2018-04-13T11:33:19.458Z,18.27
2018-04-13T11:34:58.222Z,18.25
2018-04-13T11:36:34.708Z,18.25
2018-04-13T11:38:11.331Z,18.30
2018-04-13T11:39:48.278Z,18.25
2018-04-13T11:41:25.538Z,18.30
2018-04-13T11:43:02.789Z,18.42
2018-04-13T11:44:39.320Z,18.50
2018-04-13T11:46:16.551Z,18.71
2018-04-13T11:47:53.219Z,18.79
2018-04-13T11:49:30.623Z,18.85
2018-04-13T11:51:07.166Z,18.84
2018-04-13T11:52:45.017Z,18.74
2018-04-13T11:54:21.477Z,18.73
2018-04-13T11:55:58.823Z,18.68
2018-04-13T11:57:35.832Z,18.63
2018-04-13T11:59:13.485Z,18.52
2018-04-13T12:00:50.704Z,18.42
2018-04-13T12:02:28.027Z,18.33
2018-04-13T12:04:04.880Z,18.28
2018-04-13T12:05:41.726Z,18.34
2018-04-13T12:07:18.154Z,18.44
2018-04-13T12:08:55.280Z,18.53
2018-04-13T12:12:05.018Z,18.77
2018-04-13T12:13:42.426Z,18.58
2018-04-13T12:15:20.523Z,18.46
2018-04-13T12:16:57.530Z,18.47
2018-04-13T12:18:34.156Z,18.55
2018-04-13T12:20:11.263Z,18.74
2018-04-13T12:21:47.703Z,19.02
2018-04-13T12:23:30.783Z,19.21
2018-04-13T12:25:07.933Z,19.27
2018-04-13T12:26:44.560Z,19.29
2018-04-13T12:28:22.279Z,19.33
2018-04-13T12:29:58.707Z,19.61
2018-04-13T12:31:35.718Z,19.86
2018-04-13T12:33:12.295Z,19.92
2018-04-13T12:34:49.577Z,19.96
2018-04-13T12:36:26.773Z,20.08
2018-04-13T12:38:04.791Z,20.00
2018-04-13T12:39:41.757Z,19.74
2018-04-13T12:41:18.385Z,19.45
2018-04-13T12:42:54.833Z,19.41
2018-04-13T12:44:31.914Z,19.41
2018-04-13T12:46:10.015Z,19.32
2018-04-13T12:47:47.248Z,19.42
2018-04-13T12:49:24.171Z,19.58
2018-04-13T12:51:00.692Z,19.95
2018-04-13T12:52:38.108Z,20.08
2018-04-13T12:54:15.534Z,19.84
2018-04-13T12:55:53.062Z,19.67
2018-04-13T12:57:30.082Z,19.52
2018-04-13T12:59:06.452Z,19.47
2018-04-13T13:00:43.751Z,19.39
2018-04-13T13:02:20.243Z,19.31
2018-04-13T13:03:57.041Z,19.38
2018-04-13T13:05:33.499Z,19.50
2018-04-13T13:07:10.622Z,19.47
2018-04-13T13:08:47.372Z,19.44
2018-04-13T13:10:24.881Z,19.24
2018-04-13T13:12:01.378Z,19.16
2018-04-13T13:13:37.714Z,19.15
2018-04-13T13:15:15.907Z,19.04
2018-04-13T13:16:53.616Z,19.06
2018-04-13T13:18:30.066Z,19.15
2018-04-13T13:20:08.012Z,19.29
2018-04-13T13:21:44.449Z,19.28
2018-04-13T13:23:21.121Z,19.15
2018-04-13T13:24:57.861Z,19.34
2018-04-13T13:26:35.006Z,19.61
2018-04-13T13:28:11.274Z,19.69
2018-04-13T13:29:47.981Z,19.65
2018-04-13T13:31:25.169Z,19.53
2018-04-13T13:33:01.773Z,19.67
2018-04-13T13:34:38.088Z,19.92
2018-04-13T13:36:14.879Z,20.07
2018-04-13T13:37:51.535Z,19.96
2018-04-13T13:39:28.253Z,19.88
2018-04-13T13:41:05.489Z,19.73
2018-04-13T13:42:42.305Z,19.76
2018-04-13T13:44:18.623Z,19.82
2018-04-13T13:45:55.702Z,19.87
2018-04-13T13:47:32.975Z,19.89
2018-04-13T13:49:10.384Z,19.89
2018-04-13T13:50:46.748Z,19.86
2018-04-13T13:52:23.023Z,19.94
2018-04-13T13:53:59.494Z,20.07
2018-04-13T13:55:36.264Z,20.15
2018-04-13T13:57:13.630Z,20.21
2018-04-13T13:58:49.937Z,20.18
2018-04-13T14:00:28.517Z,20.04
2018-04-13T14:02:05.062Z,20.09
2018-04-13T14:03:42.186Z,20.22
2018-04-13T14:05:18.773Z,20.13
2018-04-13T14:06:55.632Z,20.00
2018-04-13T14:08:32.618Z,19.75
2018-04-13T14:10:10.599Z,19.73
2018-04-13T14:13:23.361Z,19.95
2018-04-13T14:15:00.867Z,19.74
2018-04-13T14:16:38.367Z,19.41
2018-04-13T14:18:15.523Z,19.30
2018-04-13T14:19:51.859Z,19.29
2018-04-13T14:21:29.405Z,19.33
2018-04-13T14:23:06.873Z,19.25
2018-04-13T14:24:43.439Z,19.38
2018-04-13T14:26:19.816Z,19.64
2018-04-13T14:27:57.376Z,19.59
2018-04-13T14:29:34.588Z,19.68
2018-04-13T14:31:12.327Z,19.76
2018-04-13T14:32:49.549Z,19.92
2018-04-13T14:34:27.375Z,20.02
2018-04-13T14:36:03.830Z,20.10
2018-04-13T14:37:40.260Z,20.05
2018-04-13T14:39:16.752Z,19.99
2018-04-13T14:40:54.187Z,20.07
2018-04-13T14:42:31.418Z,20.21
2018-04-13T14:44:08.630Z,20.29
2018-04-13T14:45:45.098Z,20.48
2018-04-13T14:47:21.570Z,20.49
2018-04-13T14:48:58.356Z,20.10
2018-04-13T14:50:34.918Z,19.88
2018-04-13T14:52:11.485Z,19.91
2018-04-13T14:53:48.366Z,20.28
2018-04-13T14:55:24.739Z,20.48
2018-04-13T14:57:01.293Z,20.37
2018-04-13T14:58:37.945Z,20.28
2018-04-13T15:00:18.052Z,20.24
2018-04-13T15:01:55.459Z,20.27
2018-04-13T15:03:32.738Z,20.33
2018-04-13T15:05:09.329Z,20.34
2018-04-13T15:06:47.786Z,20.24
2018-04-13T15:08:24.305Z,20.06
2018-04-13T15:10:00.712Z,20.02
2018-04-13T15:11:37.082Z,20.03
2018-04-13T15:13:14.814Z,19.94
2018-04-13T15:14:51.154Z,20.06
2018-04-13T15:16:27.734Z,20.18
2018-04-13T15:18:04.875Z,20.07
2018-04-13T15:19:42.961Z,19.99
2018-04-13T15:21:20.528Z,19.87
2018-04-13T15:22:58.111Z,19.82
2018-04-13T15:24:34.839Z,19.89
2018-04-13T15:26:11.811Z,19.99
2018-04-13T15:27:48.618Z,19.92
2018-04-13T15:29:50.145Z,19.85
2018-04-13T15:31:27.110Z,19.69
2018-04-13T15:33:04.095Z,19.69
2018-04-13T15:34:41.588Z,19.68
2018-04-13T15:36:18.045Z,19.70
2018-04-13T15:37:54.563Z,19.35
2018-04-13T15:39:31.617Z,19.26
2018-04-13T15:41:10.651Z,19.37
2018-04-13T15:42:47.094Z,19.51
2018-04-13T15:44:24.458Z,19.58
2018-04-13T15:46:00.957Z,19.50
2018-04-13T15:47:37.699Z,19.63
2018-04-13T15:49:14.789Z,19.74
2018-04-13T15:50:51.412Z,19.85
2018-04-13T15:52:28.096Z,19.88
2018-04-13T15:54:04.707Z,19.90
2018-04-13T15:55:42.781Z,19.88
2018-04-13T15:57:20.100Z,19.83
2018-04-13T15:58:56.614Z,19.64
2018-04-13T16:00:33.079Z,19.37
2018-04-13T16:02:09.960Z,19.20
2018-04-13T16:03:46.366Z,19.04
2018-04-13T16:05:22.804Z,19.04
2018-04-13T16:06:59.216Z,19.04
2018-04-13T16:08:37.023Z,19.13
2018-04-13T16:10:13.589Z,19.26
2018-04-13T16:11:50.129Z,19.29
2018-04-13T16:13:26.617Z,19.30
2018-04-13T16:15:05.413Z,19.12
2018-04-13T16:16:41.975Z,19.11
2018-04-13T16:18:18.951Z,19.16
2018-04-13T16:19:55.514Z,19.16
2018-04-13T16:21:32.268Z,19.19
2018-04-13T16:23:08.873Z,19.17
2018-04-13T16:24:45.588Z,19.23
2018-04-13T16:26:21.948Z,19.27
2018-04-13T16:27:58.795Z,19.27
2018-04-13T16:29:35.375Z,19.25
2018-04-13T16:31:12.140Z,19.31
2018-04-13T16:32:49.960Z,19.28
2018-04-13T16:34:27.093Z,19.37
2018-04-13T16:36:03.635Z,19.36
2018-04-13T16:37:40.099Z,19.22
2018-04-13T16:39:17.827Z,19.18
2018-04-13T16:40:55.964Z,19.24
2018-04-13T16:42:32.428Z,19.32
2018-04-13T16:44:09.096Z,19.39
2018-04-13T16:45:45.505Z,19.43
2018-04-13T16:47:23.445Z,19.44
2018-04-13T16:49:01.711Z,19.30
2018-04-13T16:50:38.252Z,19.13
2018-04-13T16:52:14.761Z,18.84
2018-04-13T16:53:54.453Z,18.62
2018-04-13T16:55:30.961Z,18.63
2018-04-13T16:57:07.894Z,18.67
2018-04-13T16:58:44.751Z,18.77
2018-04-13T17:00:21.694Z,18.86
2018-04-13T17:01:58.347Z,18.92
2018-04-13T17:03:36.425Z,19.01
2018-04-13T17:05:13.208Z,19.06
2018-04-13T17:06:50.263Z,19.16
2018-04-13T17:08:26.650Z,19.08
2018-04-13T17:10:03.963Z,19.18
2018-04-13T17:11:40.775Z,19.31
2018-04-13T17:13:18.309Z,19.43
2018-04-13T17:14:55.742Z,19.52
2018-04-13T17:16:32.228Z,19.53
2018-04-13T17:18:09.469Z,19.52
2018-04-13T17:19:46.435Z,19.41
2018-04-13T17:21:27.607Z,19.35
2018-04-13T17:23:04.114Z,19.34
2018-04-13T17:24:40.587Z,19.39
2018-04-13T17:26:17.578Z,19.39
2018-04-13T17:27:54.019Z,19.32
2018-04-13T17:29:30.436Z,19.30
2018-04-13T17:31:07.723Z,19.31
2018-04-13T17:32:45.506Z,19.43
2018-04-13T17:34:29.294Z,19.51
2018-04-13T17:36:05.811Z,19.37
2018-04-13T17:37:42.519Z,19.43
2018-04-13T17:39:20.427Z,19.51
2018-04-13T17:40:56.897Z,19.47
2018-04-13T17:42:36.970Z,19.48
2018-04-13T17:44:17.196Z,19.22
2018-04-13T17:45:54.523Z,19.29
2018-04-13T17:47:31.834Z,19.44
2018-04-13T17:49:08.379Z,19.31
2018-04-13T17:50:45.540Z,19.31
2018-04-13T17:52:26.102Z,19.34
2018-04-13T17:54:03.328Z,19.32
2018-04-13T17:55:39.935Z,19.05
2018-04-13T17:57:16.450Z,19.06
2018-04-13T17:58:53.271Z,19.29
2018-04-13T18:00:29.840Z,19.52
2018-04-13T18:02:06.395Z,19.65
2018-04-13T18:03:42.822Z,19.83
2018-04-13T18:05:19.858Z,19.90
2018-04-13T18:06:57.132Z,19.80
2018-04-13T18:08:33.517Z,19.72
2018-04-13T18:10:10.062Z,19.59
2018-04-13T18:11:47.769Z,19.49
2018-04-13T18:13:24.489Z,19.34
2018-04-13T18:15:00.887Z,19.41
2018-04-13T18:16:38.183Z,19.41
2018-04-13T18:18:16.798Z,19.37
2018-04-13T18:19:54.092Z,19.37
2018-04-13T18:21:31.242Z,19.52
2018-04-13T18:23:07.786Z,19.53
2018-04-13T18:24:44.716Z,19.38
2018-04-13T18:26:30.793Z,19.24
2018-04-13T18:28:08.053Z,19.19
2018-04-13T18:29:44.517Z,19.03
2018-04-13T18:31:21.555Z,18.84
2018-04-13T18:32:58.029Z,18.75
2018-04-13T18:34:34.508Z,18.66
2018-04-13T18:36:11.684Z,18.77
2018-04-13T18:37:48.563Z,18.90
2018-04-13T18:39:26.174Z,18.94
2018-04-13T18:41:02.928Z,18.98
2018-04-13T18:42:39.398Z,18.90
2018-04-13T18:44:16.616Z,18.88
2018-04-13T18:47:33.589Z,18.79
2018-04-13T18:49:10.491Z,18.72
2018-04-13T18:50:47.529Z,18.99
2018-04-13T18:52:25.788Z,19.09
2018-04-13T18:54:03.038Z,19.20
2018-04-13T18:55:40.349Z,19.43
2018-04-13T18:57:18.106Z,19.50
2018-04-13T18:58:54.728Z,19.47
2018-04-13T19:00:31.847Z,19.36
2018-04-13T19:02:08.329Z,19.52
2018-04-13T19:03:45.276Z,19.36
2018-04-13T19:05:21.952Z,19.15
2018-04-13T19:06:59.992Z,19.18
2018-04-13T19:08:38.273Z,19.23
2018-04-13T19:10:15.225Z,19.52
2018-04-13T19:11:51.765Z,19.69
2018-04-13T19:13:28.099Z,19.71
2018-04-13T19:15:04.828Z,19.83
2018-04-13T19:16:41.707Z,19.56
2018-04-13T19:18:18.243Z,19.21
2018-04-13T19:19:54.814Z,19.03
2018-04-13T19:21:32.362Z,19.23
2018-04-13T19:23:09.141Z,19.27
2018-04-13T19:24:52.941Z,19.11
2018-04-13T19:26:30.131Z,18.95
2018-04-13T19:28:06.896Z,18.94
2018-04-13T19:29:43.597Z,18.88
2018-04-13T19:31:21.183Z,18.72
2018-04-13T19:32:58.163Z,18.82
2018-04-13T19:34:34.628Z,19.21
2018-04-13T19:36:13.090Z,19.51
2018-04-13T19:37:49.798Z,19.70
2018-04-13T19:39:26.592Z,19.60
2018-04-13T19:41:04.117Z,19.39
2018-04-13T19:42:41.977Z,19.58
2018-04-13T19:44:19.079Z,19.63
2018-04-13T19:45:55.941Z,19.64
2018-04-13T19:47:32.942Z,19.75
2018-04-13T19:49:10.963Z,19.75
2018-04-13T19:50:48.055Z,19.84
2018-04-13T19:52:25.555Z,19.81
2018-04-13T19:54:03.085Z,19.83
2018-04-13T19:55:41.605Z,19.60
2018-04-13T19:57:18.291Z,19.56
2018-04-13T19:58:55.208Z,19.32
2018-04-13T20:00:32.566Z,19.54
2018-04-13T20:02:10.895Z,19.52
2018-04-13T20:03:47.606Z,19.43
2018-04-13T20:05:25.326Z,19.32
2018-04-13T20:07:04.043Z,19.38
2018-04-13T20:08:41.266Z,19.66
2018-04-13T20:10:18.592Z,19.87
2018-04-13T20:11:55.312Z,19.87
2018-04-13T20:13:33.757Z,19.63
2018-04-13T20:15:11.590Z,19.40
2018-04-13T20:16:48.611Z,19.34
2018-04-13T20:18:26.636Z,19.70
2018-04-13T20:20:04.455Z,19.79
2018-04-13T20:21:42.093Z,19.73
2018-04-13T20:23:20.581Z,19.43
2018-04-13T20:24:57.347Z,19.46
2018-04-13T20:26:33.944Z,19.36
2018-04-13T20:28:11.473Z,19.44
2018-04-13T20:29:48.054Z,19.63
2018-04-13T20:31:25.056Z,19.71
2018-04-13T20:33:01.574Z,19.85
2018-04-13T20:34:39.491Z,19.87
2018-04-13T20:36:16.030Z,19.81
2018-04-13T20:37:53.458Z,19.63
2018-04-13T20:39:30.763Z,19.56
2018-04-13T20:41:12.044Z,19.58
2018-04-13T20:42:50.729Z,19.66
2018-04-13T20:44:27.774Z,19.66
2018-04-13T20:46:05.828Z,19.29
2018-04-13T20:47:43.682Z,18.91
2018-04-13T20:49:20.441Z,18.53
2018-04-13T20:50:57.785Z,18.53
2018-04-13T20:52:34.247Z,18.54
2018-04-13T20:54:11.445Z,18.44
2018-04-13T20:55:48.052Z,18.49
2018-04-13T20:57:24.997Z,18.35
2018-04-13T20:59:02.089Z,18.38
2018-04-13T21:00:40.201Z,18.28
2018-04-13T21:02:17.357Z,18.36